sensor_id;sensor_type;location;lat;lon;timestamp;P1;durP1;ratioP1;P2;durP2;ratioP2
19026;SDS011;9646;52.034;5.554;2024-03-08T00:01:00;13.85;;;9.48;;
19026;SDS011;9646;52.034;5.554;2024-03-08T00:03:27;15.63;;;9.35;;
19026;SDS011;9646;52.034;5.554;2024-03-08T00:05:55;15.20;;;10.32;;
19026;SDS011;9646;52.034;5.554;2024-03-08T00:08:22;16.05;;;10.57;;
19026;SDS011;9646;52.034;5.554;2024-03-08T00:10:51;18.85;;;12.18;;
19026;SDS011;9646;52.034;5.554;2024-03-08T00:13:19;16.10;;;10.38;;
19026;SDS011;9646;52.034;5.554;2024-03-08T00:15:46;16.42;;;10.80;;
19026;SDS011;9646;52.034;5.554;2024-03-08T00:18:13;18.25;;;11.77;;
19026;SDS011;9646;52.034;5.554;2024-03-08T00:20:41;17.00;;;10.20;;
19026;SDS011;9646;52.034;5.554;2024-03-08T00:23:09;16.42;;;9.93;;
19026;SDS011;9646;52.034;5.554;2024-03-08T00:25:37;17.98;;;11.10;;
19026;SDS011;9646;52.034;5.554;2024-03-08T00:28:04;16.73;;;10.82;;
19026;SDS011;9646;52.034;5.554;2024-03-08T00:30:33;18.98;;;11.82;;
19026;SDS011;9646;52.034;5.554;2024-03-08T00:33:00;16.25;;;10.40;;
19026;SDS011;9646;52.034;5.554;2024-03-08T00:35:27;18.40;;;11.35;;
19026;SDS011;9646;52.034;5.554;2024-03-08T00:37:56;17.00;;;10.65;;
19026;SDS011;9646;52.034;5.554;2024-03-08T00:40:23;15.30;;;9.70;;
19026;SDS011;9646;52.034;5.554;2024-03-08T00:42:50;18.70;;;11.48;;
19026;SDS011;9646;52.034;5.554;2024-03-08T00:45:18;16.95;;;11.30;;
19026;SDS011;9646;52.034;5.554;2024-03-08T00:47:47;17.33;;;10.55;;
19026;SDS011;9646;52.034;5.554;2024-03-08T00:50:14;16.77;;;10.65;;
19026;SDS011;9646;52.034;5.554;2024-03-08T00:52:41;17.65;;;11.70;;
19026;SDS011;9646;52.034;5.554;2024-03-08T00:55:09;16.75;;;10.65;;
19026;SDS011;9646;52.034;5.554;2024-03-08T00:57:36;16.80;;;10.98;;
19026;SDS011;9646;52.034;5.554;2024-03-08T01:00:05;14.10;;;10.02;;
19026;SDS011;9646;52.034;5.554;2024-03-08T01:02:36;14.40;;;10.45;;
19026;SDS011;9646;52.034;5.554;2024-03-08T01:05:05;15.35;;;10.93;;
19026;SDS011;9646;52.034;5.554;2024-03-08T01:07:33;16.08;;;10.40;;
19026;SDS011;9646;52.034;5.554;2024-03-08T01:10:00;19.85;;;10.95;;
19026;SDS011;9646;52.034;5.554;2024-03-08T01:12:28;16.02;;;10.00;;
19026;SDS011;9646;52.034;5.554;2024-03-08T01:14:55;18.13;;;11.10;;
19026;SDS011;9646;52.034;5.554;2024-03-08T01:17:23;14.77;;;10.05;;
19026;SDS011;9646;52.034;5.554;2024-03-08T01:19:51;13.77;;;10.27;;
19026;SDS011;9646;52.034;5.554;2024-03-08T01:22:19;17.25;;;11.93;;
19026;SDS011;9646;52.034;5.554;2024-03-08T01:24:47;16.80;;;11.02;;
19026;SDS011;9646;52.034;5.554;2024-03-08T01:27:14;17.80;;;11.57;;
19026;SDS011;9646;52.034;5.554;2024-03-08T01:29:42;18.17;;;11.32;;
19026;SDS011;9646;52.034;5.554;2024-03-08T01:32:09;17.08;;;11.20;;
19026;SDS011;9646;52.034;5.554;2024-03-08T01:34:37;16.55;;;11.07;;
19026;SDS011;9646;52.034;5.554;2024-03-08T01:37:04;20.15;;;12.75;;
19026;SDS011;9646;52.034;5.554;2024-03-08T01:39:33;16.45;;;10.70;;
19026;SDS011;9646;52.034;5.554;2024-03-08T01:42:00;14.77;;;10.40;;
19026;SDS011;9646;52.034;5.554;2024-03-08T01:44:27;16.48;;;11.02;;
19026;SDS011;9646;52.034;5.554;2024-03-08T01:46:55;15.38;;;11.00;;
19026;SDS011;9646;52.034;5.554;2024-03-08T01:49:22;17.52;;;10.73;;
19026;SDS011;9646;52.034;5.554;2024-03-08T01:51:50;15.45;;;11.07;;
19026;SDS011;9646;52.034;5.554;2024-03-08T01:54:18;17.40;;;11.98;;
19026;SDS011;9646;52.034;5.554;2024-03-08T01:56:47;15.55;;;11.15;;
19026;SDS011;9646;52.034;5.554;2024-03-08T01:59:14;16.60;;;11.40;;
19026;SDS011;9646;52.034;5.554;2024-03-08T02:01:42;14.90;;;10.80;;
19026;SDS011;9646;52.034;5.554;2024-03-08T02:04:09;20.33;;;12.57;;
19026;SDS011;9646;52.034;5.554;2024-03-08T02:06:36;16.42;;;11.70;;
19026;SDS011;9646;52.034;5.554;2024-03-08T02:09:05;16.10;;;11.60;;
19026;SDS011;9646;52.034;5.554;2024-03-08T02:11:33;15.07;;;10.25;;
19026;SDS011;9646;52.034;5.554;2024-03-08T02:14:02;19.98;;;11.60;;
19026;SDS011;9646;52.034;5.554;2024-03-08T02:16:31;15.90;;;11.27;;
19026;SDS011;9646;52.034;5.554;2024-03-08T02:18:58;13.90;;;9.65;;
19026;SDS011;9646;52.034;5.554;2024-03-08T02:21:27;17.67;;;10.93;;
19026;SDS011;9646;52.034;5.554;2024-03-08T02:23:55;18.17;;;10.85;;
19026;SDS011;9646;52.034;5.554;2024-03-08T02:26:22;12.98;;;9.55;;
19026;SDS011;9646;52.034;5.554;2024-03-08T02:28:49;14.25;;;9.55;;
19026;SDS011;9646;52.034;5.554;2024-03-08T02:31:19;13.45;;;9.75;;
19026;SDS011;9646;52.034;5.554;2024-03-08T02:33:46;12.85;;;9.68;;
19026;SDS011;9646;52.034;5.554;2024-03-08T02:36:14;16.35;;;10.95;;
19026;SDS011;9646;52.034;5.554;2024-03-08T02:38:42;20.17;;;11.80;;
19026;SDS011;9646;52.034;5.554;2024-03-08T02:41:09;16.17;;;11.27;;
19026;SDS011;9646;52.034;5.554;2024-03-08T02:43:37;14.98;;;10.30;;
19026;SDS011;9646;52.034;5.554;2024-03-08T02:46:04;15.82;;;9.80;;
19026;SDS011;9646;52.034;5.554;2024-03-08T02:48:32;16.25;;;10.93;;
19026;SDS011;9646;52.034;5.554;2024-03-08T02:50:59;16.30;;;10.45;;
19026;SDS011;9646;52.034;5.554;2024-03-08T02:53:27;14.80;;;10.65;;
19026;SDS011;9646;52.034;5.554;2024-03-08T02:56:01;17.30;;;11.43;;
19026;SDS011;9646;52.034;5.554;2024-03-08T02:58:30;15.40;;;10.70;;
19026;SDS011;9646;52.034;5.554;2024-03-08T03:00:58;18.05;;;11.50;;
19026;SDS011;9646;52.034;5.554;2024-03-08T03:03:25;14.93;;;9.77;;
19026;SDS011;9646;52.034;5.554;2024-03-08T03:05:52;13.90;;;9.63;;
19026;SDS011;9646;52.034;5.554;2024-03-08T03:08:20;11.32;;;8.40;;
19026;SDS011;9646;52.034;5.554;2024-03-08T03:10:48;16.38;;;11.88;;
19026;SDS011;9646;52.034;5.554;2024-03-08T03:13:17;13.73;;;10.30;;
19026;SDS011;9646;52.034;5.554;2024-03-08T03:15:45;14.95;;;9.77;;
19026;SDS011;9646;52.034;5.554;2024-03-08T03:18:13;13.90;;;8.77;;
19026;SDS011;9646;52.034;5.554;2024-03-08T03:20:41;16.35;;;11.88;;
19026;SDS011;9646;52.034;5.554;2024-03-08T03:23:09;17.60;;;12.30;;
19026;SDS011;9646;52.034;5.554;2024-03-08T03:25:39;11.95;;;8.65;;
19026;SDS011;9646;52.034;5.554;2024-03-08T03:28:06;16.77;;;10.20;;
19026;SDS011;9646;52.034;5.554;2024-03-08T03:30:37;17.10;;;11.20;;
19026;SDS011;9646;52.034;5.554;2024-03-08T03:33:05;16.65;;;11.98;;
19026;SDS011;9646;52.034;5.554;2024-03-08T03:35:32;13.50;;;9.13;;
19026;SDS011;9646;52.034;5.554;2024-03-08T03:38:01;14.75;;;10.73;;
19026;SDS011;9646;52.034;5.554;2024-03-08T03:40:31;16.08;;;11.40;;
19026;SDS011;9646;52.034;5.554;2024-03-08T03:43:00;14.77;;;11.18;;
19026;SDS011;9646;52.034;5.554;2024-03-08T03:45:28;12.75;;;9.05;;
19026;SDS011;9646;52.034;5.554;2024-03-08T03:48:00;13.30;;;10.50;;
19026;SDS011;9646;52.034;5.554;2024-03-08T03:50:27;14.85;;;10.95;;
19026;SDS011;9646;52.034;5.554;2024-03-08T03:52:55;16.05;;;11.13;;
19026;SDS011;9646;52.034;5.554;2024-03-08T03:55:22;11.90;;;8.73;;
19026;SDS011;9646;52.034;5.554;2024-03-08T03:57:49;11.88;;;9.35;;
19026;SDS011;9646;52.034;5.554;2024-03-08T04:00:17;12.43;;;8.65;;
19026;SDS011;9646;52.034;5.554;2024-03-08T04:02:44;13.57;;;9.15;;
19026;SDS011;9646;52.034;5.554;2024-03-08T04:05:13;13.00;;;8.27;;
19026;SDS011;9646;52.034;5.554;2024-03-08T04:07:41;12.80;;;9.50;;
19026;SDS011;9646;52.034;5.554;2024-03-08T04:10:09;12.18;;;8.82;;
19026;SDS011;9646;52.034;5.554;2024-03-08T04:12:36;11.85;;;8.05;;
19026;SDS011;9646;52.034;5.554;2024-03-08T04:15:04;11.25;;;8.55;;
19026;SDS011;9646;52.034;5.554;2024-03-08T04:17:32;10.75;;;8.15;;
19026;SDS011;9646;52.034;5.554;2024-03-08T04:20:02;10.43;;;8.25;;
19026;SDS011;9646;52.034;5.554;2024-03-08T04:22:36;11.45;;;9.27;;
19026;SDS011;9646;52.034;5.554;2024-03-08T04:25:04;12.30;;;8.98;;
19026;SDS011;9646;52.034;5.554;2024-03-08T04:27:31;11.88;;;8.20;;
19026;SDS011;9646;52.034;5.554;2024-03-08T04:29:59;10.20;;;7.90;;
19026;SDS011;9646;52.034;5.554;2024-03-08T04:32:26;11.52;;;8.65;;
19026;SDS011;9646;52.034;5.554;2024-03-08T04:34:54;9.88;;;8.23;;
19026;SDS011;9646;52.034;5.554;2024-03-08T04:37:21;10.82;;;8.75;;
19026;SDS011;9646;52.034;5.554;2024-03-08T04:39:50;11.20;;;8.40;;
19026;SDS011;9646;52.034;5.554;2024-03-08T04:42:17;10.35;;;8.38;;
19026;SDS011;9646;52.034;5.554;2024-03-08T04:44:46;12.80;;;7.97;;
19026;SDS011;9646;52.034;5.554;2024-03-08T04:47:13;10.55;;;8.05;;
19026;SDS011;9646;52.034;5.554;2024-03-08T04:49:43;9.95;;;7.90;;
19026;SDS011;9646;52.034;5.554;2024-03-08T04:52:10;11.43;;;8.70;;
19026;SDS011;9646;52.034;5.554;2024-03-08T04:54:37;10.65;;;7.97;;
19026;SDS011;9646;52.034;5.554;2024-03-08T04:57:08;12.30;;;9.77;;
19026;SDS011;9646;52.034;5.554;2024-03-08T04:59:36;15.35;;;11.88;;
19026;SDS011;9646;52.034;5.554;2024-03-08T05:02:03;13.85;;;10.23;;
19026;SDS011;9646;52.034;5.554;2024-03-08T05:04:30;13.18;;;10.75;;
19026;SDS011;9646;52.034;5.554;2024-03-08T05:06:57;14.38;;;10.80;;
19026;SDS011;9646;52.034;5.554;2024-03-08T05:09:26;14.35;;;11.48;;
19026;SDS011;9646;52.034;5.554;2024-03-08T05:11:54;14.48;;;10.95;;
19026;SDS011;9646;52.034;5.554;2024-03-08T05:14:23;14.70;;;10.85;;
19026;SDS011;9646;52.034;5.554;2024-03-08T05:16:50;16.35;;;11.70;;
19026;SDS011;9646;52.034;5.554;2024-03-08T05:19:18;14.40;;;9.75;;
19026;SDS011;9646;52.034;5.554;2024-03-08T05:21:45;13.55;;;11.25;;
19026;SDS011;9646;52.034;5.554;2024-03-08T05:24:13;14.30;;;10.60;;
19026;SDS011;9646;52.034;5.554;2024-03-08T05:26:40;13.68;;;10.50;;
19026;SDS011;9646;52.034;5.554;2024-03-08T05:29:08;13.95;;;10.93;;
19026;SDS011;9646;52.034;5.554;2024-03-08T05:31:38;15.20;;;11.25;;
19026;SDS011;9646;52.034;5.554;2024-03-08T05:34:09;15.35;;;10.80;;
19026;SDS011;9646;52.034;5.554;2024-03-08T05:36:39;12.40;;;9.65;;
19026;SDS011;9646;52.034;5.554;2024-03-08T05:39:06;12.77;;;9.57;;
19026;SDS011;9646;52.034;5.554;2024-03-08T05:41:33;12.55;;;9.50;;
19026;SDS011;9646;52.034;5.554;2024-03-08T05:44:01;15.45;;;11.30;;
19026;SDS011;9646;52.034;5.554;2024-03-08T05:46:28;17.42;;;11.40;;
19026;SDS011;9646;52.034;5.554;2024-03-08T05:48:57;16.63;;;11.77;;
19026;SDS011;9646;52.034;5.554;2024-03-08T05:51:25;13.52;;;10.40;;
19026;SDS011;9646;52.034;5.554;2024-03-08T05:53:53;14.45;;;10.60;;
19026;SDS011;9646;52.034;5.554;2024-03-08T05:56:22;16.75;;;12.32;;
19026;SDS011;9646;52.034;5.554;2024-03-08T05:58:50;17.80;;;11.80;;
19026;SDS011;9646;52.034;5.554;2024-03-08T06:01:17;11.85;;;8.77;;
19026;SDS011;9646;52.034;5.554;2024-03-08T06:03:45;18.58;;;11.75;;
19026;SDS011;9646;52.034;5.554;2024-03-08T06:06:15;13.10;;;8.95;;
19026;SDS011;9646;52.034;5.554;2024-03-08T06:08:43;16.00;;;11.10;;
19026;SDS011;9646;52.034;5.554;2024-03-08T06:11:10;15.60;;;10.52;;
19026;SDS011;9646;52.034;5.554;2024-03-08T06:13:37;12.82;;;9.60;;
19026;SDS011;9646;52.034;5.554;2024-03-08T06:16:05;12.55;;;9.05;;
19026;SDS011;9646;52.034;5.554;2024-03-08T06:18:33;14.20;;;10.25;;
19026;SDS011;9646;52.034;5.554;2024-03-08T06:21:01;13.52;;;9.98;;
19026;SDS011;9646;52.034;5.554;2024-03-08T06:23:31;13.73;;;10.52;;
19026;SDS011;9646;52.034;5.554;2024-03-08T06:25:58;14.65;;;10.95;;
19026;SDS011;9646;52.034;5.554;2024-03-08T06:28:26;17.25;;;12.73;;
19026;SDS011;9646;52.034;5.554;2024-03-08T06:30:52;13.68;;;9.38;;
19026;SDS011;9646;52.034;5.554;2024-03-08T06:33:19;14.55;;;11.43;;
19026;SDS011;9646;52.034;5.554;2024-03-08T06:35:46;15.75;;;9.75;;
19026;SDS011;9646;52.034;5.554;2024-03-08T06:38:13;13.77;;;9.43;;
19026;SDS011;9646;52.034;5.554;2024-03-08T06:40:43;17.23;;;11.43;;
19026;SDS011;9646;52.034;5.554;2024-03-08T06:43:12;15.82;;;11.52;;
19026;SDS011;9646;52.034;5.554;2024-03-08T06:45:41;17.38;;;12.68;;
19026;SDS011;9646;52.034;5.554;2024-03-08T06:48:13;15.48;;;11.88;;
19026;SDS011;9646;52.034;5.554;2024-03-08T06:50:40;19.88;;;13.38;;
19026;SDS011;9646;52.034;5.554;2024-03-08T06:53:07;15.95;;;10.23;;
19026;SDS011;9646;52.034;5.554;2024-03-08T06:55:34;16.70;;;11.75;;
19026;SDS011;9646;52.034;5.554;2024-03-08T06:58:03;17.17;;;12.38;;
19026;SDS011;9646;52.034;5.554;2024-03-08T07:00:31;14.18;;;11.27;;
19026;SDS011;9646;52.034;5.554;2024-03-08T07:02:59;14.13;;;10.65;;
19026;SDS011;9646;52.034;5.554;2024-03-08T07:05:26;15.13;;;9.35;;
19026;SDS011;9646;52.034;5.554;2024-03-08T07:07:54;18.27;;;13.20;;
19026;SDS011;9646;52.034;5.554;2024-03-08T07:10:22;18.25;;;13.57;;
19026;SDS011;9646;52.034;5.554;2024-03-08T07:12:49;21.60;;;15.18;;
19026;SDS011;9646;52.034;5.554;2024-03-08T07:15:18;15.38;;;9.32;;
19026;SDS011;9646;52.034;5.554;2024-03-08T07:17:46;14.90;;;9.82;;
19026;SDS011;9646;52.034;5.554;2024-03-08T07:20:13;13.35;;;8.70;;
19026;SDS011;9646;52.034;5.554;2024-03-08T07:22:44;14.93;;;7.82;;
19026;SDS011;9646;52.034;5.554;2024-03-08T07:25:12;11.30;;;7.55;;
19026;SDS011;9646;52.034;5.554;2024-03-08T07:27:46;17.95;;;11.27;;
19026;SDS011;9646;52.034;5.554;2024-03-08T07:30:13;10.73;;;5.72;;
19026;SDS011;9646;52.034;5.554;2024-03-08T07:33:03;16.85;;;10.52;;
19026;SDS011;9646;52.034;5.554;2024-03-08T07:35:32;14.95;;;12.35;;
19026;SDS011;9646;52.034;5.554;2024-03-08T07:38:02;18.58;;;12.20;;
19026;SDS011;9646;52.034;5.554;2024-03-08T07:40:30;17.65;;;11.50;;
19026;SDS011;9646;52.034;5.554;2024-03-08T07:42:57;17.13;;;11.93;;
19026;SDS011;9646;52.034;5.554;2024-03-08T07:45:25;15.82;;;10.55;;
19026;SDS011;9646;52.034;5.554;2024-03-08T07:47:52;15.38;;;10.77;;
19026;SDS011;9646;52.034;5.554;2024-03-08T07:50:23;17.05;;;11.93;;
19026;SDS011;9646;52.034;5.554;2024-03-08T07:52:50;18.48;;;14.13;;
19026;SDS011;9646;52.034;5.554;2024-03-08T07:55:17;15.43;;;12.43;;
19026;SDS011;9646;52.034;5.554;2024-03-08T07:57:45;19.73;;;14.82;;
19026;SDS011;9646;52.034;5.554;2024-03-08T08:00:14;18.52;;;13.00;;
19026;SDS011;9646;52.034;5.554;2024-03-08T08:02:43;16.30;;;12.50;;
19026;SDS011;9646;52.034;5.554;2024-03-08T08:05:11;15.43;;;11.98;;
19026;SDS011;9646;52.034;5.554;2024-03-08T08:07:43;18.45;;;12.50;;
19026;SDS011;9646;52.034;5.554;2024-03-08T08:10:11;18.13;;;12.57;;
19026;SDS011;9646;52.034;5.554;2024-03-08T08:12:43;18.08;;;12.70;;
19026;SDS011;9646;52.034;5.554;2024-03-08T08:15:10;19.02;;;13.10;;
19026;SDS011;9646;52.034;5.554;2024-03-08T08:17:40;16.92;;;11.85;;
19026;SDS011;9646;52.034;5.554;2024-03-08T08:20:07;18.30;;;12.32;;
19026;SDS011;9646;52.034;5.554;2024-03-08T08:22:36;15.85;;;12.60;;
19026;SDS011;9646;52.034;5.554;2024-03-08T08:25:06;19.25;;;14.55;;
19026;SDS011;9646;52.034;5.554;2024-03-08T08:27:33;17.70;;;14.30;;
19026;SDS011;9646;52.034;5.554;2024-03-08T08:30:01;14.80;;;10.93;;
19026;SDS011;9646;52.034;5.554;2024-03-08T08:32:33;16.20;;;12.63;;
19026;SDS011;9646;52.034;5.554;2024-03-08T08:35:01;15.90;;;12.60;;
19026;SDS011;9646;52.034;5.554;2024-03-08T08:37:29;16.58;;;11.48;;
19026;SDS011;9646;52.034;5.554;2024-03-08T08:39:56;18.83;;;11.18;;
19026;SDS011;9646;52.034;5.554;2024-03-08T08:42:25;19.48;;;11.70;;
19026;SDS011;9646;52.034;5.554;2024-03-08T08:44:53;21.92;;;12.88;;
19026;SDS011;9646;52.034;5.554;2024-03-08T08:47:22;30.85;;;12.60;;
19026;SDS011;9646;52.034;5.554;2024-03-08T08:49:50;19.95;;;13.27;;
19026;SDS011;9646;52.034;5.554;2024-03-08T08:52:17;16.90;;;12.18;;
19026;SDS011;9646;52.034;5.554;2024-03-08T08:54:44;15.50;;;11.63;;
19026;SDS011;9646;52.034;5.554;2024-03-08T08:57:12;15.93;;;10.95;;
19026;SDS011;9646;52.034;5.554;2024-03-08T08:59:40;16.77;;;11.73;;
19026;SDS011;9646;52.034;5.554;2024-03-08T09:02:07;12.88;;;10.10;;
19026;SDS011;9646;52.034;5.554;2024-03-08T09:04:35;15.45;;;9.93;;
19026;SDS011;9646;52.034;5.554;2024-03-08T09:07:02;15.63;;;9.90;;
19026;SDS011;9646;52.034;5.554;2024-03-08T09:09:31;13.18;;;9.57;;
19026;SDS011;9646;52.034;5.554;2024-03-08T09:11:59;15.02;;;9.05;;
19026;SDS011;9646;52.034;5.554;2024-03-08T09:14:27;14.13;;;10.60;;
19026;SDS011;9646;52.034;5.554;2024-03-08T09:16:56;16.30;;;10.68;;
19026;SDS011;9646;52.034;5.554;2024-03-08T09:19:23;15.48;;;10.63;;
19026;SDS011;9646;52.034;5.554;2024-03-08T09:21:51;16.10;;;11.38;;
19026;SDS011;9646;52.034;5.554;2024-03-08T09:24:18;15.52;;;9.77;;
19026;SDS011;9646;52.034;5.554;2024-03-08T09:26:45;14.63;;;9.80;;
19026;SDS011;9646;52.034;5.554;2024-03-08T09:29:12;16.35;;;11.35;;
19026;SDS011;9646;52.034;5.554;2024-03-08T09:31:40;18.17;;;11.65;;
19026;SDS011;9646;52.034;5.554;2024-03-08T09:34:09;13.88;;;10.30;;
19026;SDS011;9646;52.034;5.554;2024-03-08T09:36:36;14.65;;;10.98;;
19026;SDS011;9646;52.034;5.554;2024-03-08T09:39:03;14.43;;;9.52;;
19026;SDS011;9646;52.034;5.554;2024-03-08T09:41:32;17.98;;;10.63;;
19026;SDS011;9646;52.034;5.554;2024-03-08T09:44:00;14.88;;;10.23;;
19026;SDS011;9646;52.034;5.554;2024-03-08T09:46:29;21.52;;;10.55;;
19026;SDS011;9646;52.034;5.554;2024-03-08T09:48:56;14.95;;;8.90;;
19026;SDS011;9646;52.034;5.554;2024-03-08T09:51:27;14.93;;;8.70;;
19026;SDS011;9646;52.034;5.554;2024-03-08T09:53:54;16.27;;;11.07;;
19026;SDS011;9646;52.034;5.554;2024-03-08T09:56:23;14.57;;;9.48;;
19026;SDS011;9646;52.034;5.554;2024-03-08T09:58:50;13.82;;;10.05;;
19026;SDS011;9646;52.034;5.554;2024-03-08T10:01:39;12.80;;;9.10;;
19026;SDS011;9646;52.034;5.554;2024-03-08T10:04:07;10.60;;;7.95;;
19026;SDS011;9646;52.034;5.554;2024-03-08T10:06:36;13.50;;;9.02;;
19026;SDS011;9646;52.034;5.554;2024-03-08T10:09:05;12.60;;;9.18;;
19026;SDS011;9646;52.034;5.554;2024-03-08T10:11:33;13.25;;;8.75;;
19026;SDS011;9646;52.034;5.554;2024-03-08T10:14:01;15.30;;;10.55;;
19026;SDS011;9646;52.034;5.554;2024-03-08T10:16:28;12.10;;;8.27;;
19026;SDS011;9646;52.034;5.554;2024-03-08T10:18:56;12.35;;;8.57;;
19026;SDS011;9646;52.034;5.554;2024-03-08T10:21:25;12.88;;;9.63;;
19026;SDS011;9646;52.034;5.554;2024-03-08T10:23:54;13.80;;;10.00;;
19026;SDS011;9646;52.034;5.554;2024-03-08T10:26:23;14.55;;;10.38;;
19026;SDS011;9646;52.034;5.554;2024-03-08T10:28:51;11.60;;;7.88;;
19026;SDS011;9646;52.034;5.554;2024-03-08T10:31:19;11.15;;;9.30;;
19026;SDS011;9646;52.034;5.554;2024-03-08T10:33:46;9.75;;;7.45;;
19026;SDS011;9646;52.034;5.554;2024-03-08T10:36:14;12.27;;;8.90;;
19026;SDS011;9646;52.034;5.554;2024-03-08T10:38:42;11.57;;;8.50;;
19026;SDS011;9646;52.034;5.554;2024-03-08T10:41:13;13.77;;;9.80;;
19026;SDS011;9646;52.034;5.554;2024-03-08T10:43:47;11.05;;;8.68;;
19026;SDS011;9646;52.034;5.554;2024-03-08T10:46:20;15.02;;;10.95;;
19026;SDS011;9646;52.034;5.554;2024-03-08T10:48:53;12.75;;;8.30;;
19026;SDS011;9646;52.034;5.554;2024-03-08T10:51:23;13.98;;;9.93;;
19026;SDS011;9646;52.034;5.554;2024-03-08T10:53:52;12.00;;;8.57;;
19026;SDS011;9646;52.034;5.554;2024-03-08T10:56:21;10.57;;;7.22;;
19026;SDS011;9646;52.034;5.554;2024-03-08T10:58:48;10.80;;;7.60;;
19026;SDS011;9646;52.034;5.554;2024-03-08T11:01:16;12.95;;;8.63;;
19026;SDS011;9646;52.034;5.554;2024-03-08T11:03:49;10.77;;;7.90;;
19026;SDS011;9646;52.034;5.554;2024-03-08T11:06:19;9.98;;;6.95;;
19026;SDS011;9646;52.034;5.554;2024-03-08T11:08:48;14.77;;;8.18;;
19026;SDS011;9646;52.034;5.554;2024-03-08T11:14:01;12.30;;;7.65;;
19026;SDS011;9646;52.034;5.554;2024-03-08T11:16:36;14.30;;;7.55;;
19026;SDS011;9646;52.034;5.554;2024-03-08T11:19:06;9.45;;;7.15;;
19026;SDS011;9646;52.034;5.554;2024-03-08T11:21:35;11.32;;;8.02;;
19026;SDS011;9646;52.034;5.554;2024-03-08T11:24:06;8.52;;;6.68;;
19026;SDS011;9646;52.034;5.554;2024-03-08T11:26:37;12.65;;;8.82;;
19026;SDS011;9646;52.034;5.554;2024-03-08T11:31:51;8.52;;;6.57;;
19026;SDS011;9646;52.034;5.554;2024-03-08T11:34:19;12.82;;;8.55;;
19026;SDS011;9646;52.034;5.554;2024-03-08T11:36:47;8.98;;;6.00;;
19026;SDS011;9646;52.034;5.554;2024-03-08T11:39:16;10.80;;;7.30;;
19026;SDS011;9646;52.034;5.554;2024-03-08T11:41:44;9.13;;;6.55;;
19026;SDS011;9646;52.034;5.554;2024-03-08T11:44:11;11.00;;;6.95;;
19026;SDS011;9646;52.034;5.554;2024-03-08T11:46:41;10.20;;;6.43;;
19026;SDS011;9646;52.034;5.554;2024-03-08T11:49:13;10.23;;;6.43;;
19026;SDS011;9646;52.034;5.554;2024-03-08T11:51:41;8.98;;;5.43;;
19026;SDS011;9646;52.034;5.554;2024-03-08T11:54:10;9.88;;;7.13;;
19026;SDS011;9646;52.034;5.554;2024-03-08T11:56:38;7.95;;;6.22;;
19026;SDS011;9646;52.034;5.554;2024-03-08T11:59:10;8.95;;;7.32;;
19026;SDS011;9646;52.034;5.554;2024-03-08T12:01:38;10.43;;;7.40;;
19026;SDS011;9646;52.034;5.554;2024-03-08T12:04:06;9.40;;;6.03;;
19026;SDS011;9646;52.034;5.554;2024-03-08T12:06:38;12.93;;;8.50;;
19026;SDS011;9646;52.034;5.554;2024-03-08T12:09:09;8.68;;;6.80;;
19026;SDS011;9646;52.034;5.554;2024-03-08T12:11:38;10.55;;;6.75;;
19026;SDS011;9646;52.034;5.554;2024-03-08T12:14:06;11.93;;;8.35;;
19026;SDS011;9646;52.034;5.554;2024-03-08T12:16:33;8.40;;;5.97;;
19026;SDS011;9646;52.034;5.554;2024-03-08T12:19:00;10.80;;;6.32;;
19026;SDS011;9646;52.034;5.554;2024-03-08T12:21:31;8.57;;;6.38;;
19026;SDS011;9646;52.034;5.554;2024-03-08T12:24:04;10.73;;;7.43;;
19026;SDS011;9646;52.034;5.554;2024-03-08T12:26:34;7.43;;;5.72;;
19026;SDS011;9646;52.034;5.554;2024-03-08T12:29:14;6.25;;;4.18;;
19026;SDS011;9646;52.034;5.554;2024-03-08T12:31:43;10.55;;;6.32;;
19026;SDS011;9646;52.034;5.554;2024-03-08T12:34:11;9.52;;;6.78;;
19026;SDS011;9646;52.034;5.554;2024-03-08T12:36:43;11.88;;;6.88;;
19026;SDS011;9646;52.034;5.554;2024-03-08T12:39:14;8.70;;;6.00;;
19026;SDS011;9646;52.034;5.554;2024-03-08T12:41:43;9.77;;;6.25;;
19026;SDS011;9646;52.034;5.554;2024-03-08T12:44:12;9.60;;;6.22;;
19026;SDS011;9646;52.034;5.554;2024-03-08T12:46:40;10.27;;;7.38;;
19026;SDS011;9646;52.034;5.554;2024-03-08T12:49:10;9.85;;;6.72;;
19026;SDS011;9646;52.034;5.554;2024-03-08T12:51:38;11.32;;;7.78;;
19026;SDS011;9646;52.034;5.554;2024-03-08T12:54:06;10.30;;;6.43;;
19026;SDS011;9646;52.034;5.554;2024-03-08T12:56:35;8.85;;;5.80;;
19026;SDS011;9646;52.034;5.554;2024-03-08T12:59:03;9.27;;;5.72;;
19026;SDS011;9646;52.034;5.554;2024-03-08T13:01:30;8.65;;;6.25;;
19026;SDS011;9646;52.034;5.554;2024-03-08T13:03:58;8.32;;;5.70;;
19026;SDS011;9646;52.034;5.554;2024-03-08T13:06:27;8.63;;;6.32;;
19026;SDS011;9646;52.034;5.554;2024-03-08T13:08:54;10.00;;;6.57;;
19026;SDS011;9646;52.034;5.554;2024-03-08T13:11:21;9.93;;;7.22;;
19026;SDS011;9646;52.034;5.554;2024-03-08T13:13:52;10.65;;;7.28;;
19026;SDS011;9646;52.034;5.554;2024-03-08T13:16:19;9.18;;;7.50;;
19026;SDS011;9646;52.034;5.554;2024-03-08T13:18:46;12.23;;;7.45;;
19026;SDS011;9646;52.034;5.554;2024-03-08T13:21:14;9.43;;;6.28;;
19026;SDS011;9646;52.034;5.554;2024-03-08T13:23:44;8.85;;;5.93;;
19026;SDS011;9646;52.034;5.554;2024-03-08T13:26:14;10.07;;;7.03;;
19026;SDS011;9646;52.034;5.554;2024-03-08T13:28:42;10.32;;;7.15;;
19026;SDS011;9646;52.034;5.554;2024-03-08T13:31:10;9.68;;;7.47;;
19026;SDS011;9646;52.034;5.554;2024-03-08T13:33:40;8.63;;;5.60;;
19026;SDS011;9646;52.034;5.554;2024-03-08T13:36:07;7.32;;;5.57;;
19026;SDS011;9646;52.034;5.554;2024-03-08T13:38:40;10.02;;;6.22;;
19026;SDS011;9646;52.034;5.554;2024-03-08T13:41:09;12.00;;;8.13;;
19026;SDS011;9646;52.034;5.554;2024-03-08T13:43:39;7.22;;;5.88;;
19026;SDS011;9646;52.034;5.554;2024-03-08T13:46:06;10.10;;;7.05;;
19026;SDS011;9646;52.034;5.554;2024-03-08T13:48:36;7.80;;;6.45;;
19026;SDS011;9646;52.034;5.554;2024-03-08T13:51:05;9.65;;;6.30;;
19026;SDS011;9646;52.034;5.554;2024-03-08T13:53:33;9.90;;;6.40;;
19026;SDS011;9646;52.034;5.554;2024-03-08T13:56:00;9.48;;;7.05;;
19026;SDS011;9646;52.034;5.554;2024-03-08T13:58:28;9.48;;;6.72;;
19026;SDS011;9646;52.034;5.554;2024-03-08T14:00:55;8.32;;;5.82;;
19026;SDS011;9646;52.034;5.554;2024-03-08T14:03:21;9.90;;;6.88;;
19026;SDS011;9646;52.034;5.554;2024-03-08T14:05:51;7.18;;;5.82;;
19026;SDS011;9646;52.034;5.554;2024-03-08T14:08:20;8.25;;;5.97;;
19026;SDS011;9646;52.034;5.554;2024-03-08T14:10:47;11.68;;;7.63;;
19026;SDS011;9646;52.034;5.554;2024-03-08T14:13:16;8.82;;;5.18;;
19026;SDS011;9646;52.034;5.554;2024-03-08T14:15:44;10.35;;;7.18;;
19026;SDS011;9646;52.034;5.554;2024-03-08T14:18:11;8.98;;;6.85;;
19026;SDS011;9646;52.034;5.554;2024-03-08T14:20:39;8.88;;;6.20;;
19026;SDS011;9646;52.034;5.554;2024-03-08T14:23:08;7.65;;;5.25;;
19026;SDS011;9646;52.034;5.554;2024-03-08T14:25:37;9.73;;;7.45;;
19026;SDS011;9646;52.034;5.554;2024-03-08T14:28:05;9.50;;;6.60;;
19026;SDS011;9646;52.034;5.554;2024-03-08T14:30:33;11.75;;;7.15;;
19026;SDS011;9646;52.034;5.554;2024-03-08T14:33:03;13.30;;;7.65;;
19026;SDS011;9646;52.034;5.554;2024-03-08T14:35:34;15.43;;;8.68;;
19026;SDS011;9646;52.034;5.554;2024-03-08T14:38:01;15.52;;;7.90;;
19026;SDS011;9646;52.034;5.554;2024-03-08T14:40:30;15.13;;;8.05;;
19026;SDS011;9646;52.034;5.554;2024-03-08T14:42:58;13.15;;;7.93;;
19026;SDS011;9646;52.034;5.554;2024-03-08T14:45:26;14.68;;;8.10;;
19026;SDS011;9646;52.034;5.554;2024-03-08T14:47:53;16.02;;;8.27;;
19026;SDS011;9646;52.034;5.554;2024-03-08T14:50:20;15.45;;;8.32;;
19026;SDS011;9646;52.034;5.554;2024-03-08T14:52:48;15.15;;;8.52;;
19026;SDS011;9646;52.034;5.554;2024-03-08T14:55:17;12.93;;;7.78;;